BFIBOEING FIELD/KING COUNTY INTL
METARs for nearby airports:
N 0 21' KBFI 240753Z 00000KT 10SM CLR 12/04 A3023
SE 4 32' KRNT 240753Z 33006KT 10SM CLR 11/05 A3023
S 4 432' KSEA 240753Z 04010KT 10SM CLR 14/01 A3023
W 18 443' KPWT 240756Z 03004KT 10SM CLR 09/01 A3023
SW 19 294' KTIW 240753Z 01008KT 10SM CLR 13/01 A3021
N 22 607' KPAE 240753Z VRB03KT 10SM CLR 11/04 A3026
S 24 322' KTCM 240758Z 00000KT 10SM CLR 06/06 A3021
S 25 537' KPLU 240815Z 00000KT 10SM CLR 06/05 A3021
S 29 300' KGRF 240756Z 14004KT 10SM CLR 06/04 A3020
N 38 141' KAWO 240756Z 00000KT 10SM CLR 06/03 A3026
SW 38 272' KSHN 240753Z 36005KT 10SM CLR 12/02 A3019
SW 41 207' KOLM 240754Z 07/ A3021
N 51 47' KNUW 240756Z 09004KT 10SM FEW250 07/04 A3030
N 56 145' KBVS 240815Z 00000KT 10SM CLR 08/03 A3026
NW 57 13' KNOW 240815Z 19003KT 10SM CLR 09/04 A3026
SW 58 177' KCLS 240815Z 03004KT 10SM 07/04 A3021
NW 59 291' KCLM 240753Z 23007KT 10SM CLR 08/02 A3026
NW 66 112' KFHR 240753Z 00000KT 10SM CLR 07/00 A3027
SW 74 17' KHQM 240753Z 06007KT 10SM CLR 13/03 A3018
N 74 34' KORS 240815Z 00000KT 10SM CLR 08/05 A3026
N 76 171' KBLI 240753Z 00000KT 10SM CLR 07/06 A3026
E 78 1763' KELN 240753Z 03004KT 10SM CLR 06/M02 A3036
NW 80 64' CYYJ 240800Z 28005KT 30SM BKN250 08/03 A3026
E 85 1248' KEAT 240755Z 30003KT 10SM CLR 09/M02 A3037
S 88 20' KKLS 240756Z 00000KT 10SM CLR 09/03 A3019
SE 92 1098' KYKM 240753Z 27007KT 10SM CLR 06/M02 A3036
W 94 193' KUIL 240753Z 00000KT 10SM CLR 09/02 A3019
TAFs for nearby airports:
N 0 21' KBFI TAF KBFI 240526Z 2406/2506 VRB03KT P6SM SKC
  FM242100 32008KT P6SM SKC
S 4 432' KSEA TAF KSEA 240526Z 2406/2512 04009KT P6SM SKC
  TEMPO 2416/2420 12009KT
  FM242000 36010KT P6SM SKC
W 18 443' KPWT TAF KPWT 240526Z 2406/2506 03010KT P6SM SKC
N 22 607' KPAE TAF KPAE 240526Z 2406/2506 05006KT P6SM SKC
  FM242100 35005KT P6SM SKC
S 24 322' KTCM TAF KTCM 240505Z 2405/2511 VRB06KT 9999 SKC QNH3016INS
  BECMG 2417/2418 03012KT 9999 FEW300 QNH3001INS
  TEMPO 2418/2421 03012G20KT
  BECMG 2502/2503 VRB06KT 9999 FEW250 QNH2999INS TX24/2500Z TN06/2411Z
S 29 300' KGRF TAF KGRF 240505Z 2405/2511 VRB06KT 9999 SKC QNH3016INS
  BECMG 2417/2418 34012KT 9999 FEW300 QNH3001INS
  TEMPO 2418/2421 34012G20KT
  BECMG 2502/2503 33006KT 9999 FEW250 QNH2999INS TX24/2500Z TN06/2411Z
SW 41 207' KOLM TAF KOLM 240526Z 2406/2506 35004KT P6SM SKC
  FM241800 03010KT P6SM SKC
N 51 47' KNUW TAF KNUW 2323/2423 28007KT 9999 FEW160 SCT250 QNH3023INS
  FM240300 VRB05KT 9999 SCT250 QNH3018INS
  TEMPO 2410/2416 10007KT 9999 BCFG FEW005 SCT200 BKN250
  FM241800 29008KT 9999 FEW035 SCT200 BKN250 QNH3009INS T05/2412Z T18/2423Z FS30046
NW 59 291' KCLM TAF KCLM 240526Z 2406/2506 VRB03KT P6SM SKC
  FM241800 07006KT P6SM SKC
SW 74 17' KHQM TAF KHQM 240526Z 2406/2506 08008KT P6SM SKC
N 76 171' KBLI TAF KBLI 240526Z 2406/2506 06004KT P6SM SKC
  FM242000 31005KT P6SM SKC
E 85 1248' KEAT TAF KEAT 240520Z 2406/2506 30005KT P6SM FEW250
  FM241900 12004KT P6SM FEW250
SE 92 1098' KYKM TAF KYKM 240520Z 2406/2506 25005KT P6SM SKC
  FM242100 14005KT P6SM SKC
  FM250400 25005KT P6SM SKC
Area forecast:
000
FAUS46 KKCI 101945
FA6W  
SFOC FA 101945
SYNOPSIS AND VFR CLDS/WX
SYNOPSIS VALID UNTIL 111400
CLDS/WX VALID UNTIL 110800...OTLK VALID 110800-111400
WA OR CA AND CSTL WTRS
.
SEE AIRMET SIERRA FOR IFR CONDS AND MTN OBSCN.
TS IMPLY SEV OR GTR TURB SEV ICE LLWS AND IFR CONDS.
NON MSL HGTS DENOTED BY AGL OR CIG.
.
SYNOPSIS...UPR LVL TROF WAS LOCATED NR 130W. MOIST SWLY FLOW
EXTDS FROM PAC NW EWD INTO NRN ROCKIES. HIGH PRES RIDGE WAS OVR
MUCH OF THE REST OF THE AREA. BY 14Z...UPR LVL TROF WILL EXTD
FROM WA-OR SWD INTO CA.  ..STREIB..
.
WA CASCDS WWD
CSTL SXNS
CSTLN-INLAND...SCT-BKN025 BKN035-050 TOPS 120-140. ISOL -SHRA.
   OTLK...MVFR CIGS SHRA BR.
PUGET SOUND-INTR VLY...SCT-BKN020 BKN-OVC035-050 TOPS 160 BKN CI.
   WDLY SCT -SHRA. OTLK...MVFR CIGS SHRA.
CASCDS...BKN-OVC050-070 TOPS FL180. BKN CI ABV. WDLY SCT -SHRA.
   OTLK...MVFR CIGS SHRA.
.
WA E OF CASCDS
CNTRL WA...SCT140 OVC CI. BECMG 2302 SCT080 BKN120 LYRD FL240.
   OTLK...VFR.
ERN WA...SCT-BKN140-160 LYRD FL240. BECMG 0508 BKN080 OVC120
   LYRD FL240 ISOL -SHRA DVLPG. OTLK...VFR.
.
OR CASCDS WWD
CSTL SXNS
CSTLN-INLAND...SCT-BKN020 BKN-OVC035-050 TOPS FL180. WDLY SCT
   -SHRA. OTLK...MVFR CIGS SHRA.
WILLAMETTE VLY/SWRN INTR...SCT-BKN020 BKN-OVC035-050 TOPS FL180.
   WDLY SCT -SHRA. OTLK...MVFR CIGS SHRA.
CASCDS...SCT-BKN060 BKN-OVC080-100 TOPS FL180 ISOL -SHRA.
   OTLK...MVFR CIGS SHRA.
.
OR E OF CASCDS
CNTRL...SCT100-120 BKN150 LYRD FL240. OTLK...VFR.
ERN...SCT130-150 BKN CI. BECMG 0205 OVC120-140 LYRD FL240.
   OTLK...VFR.
.
NRN CA...STS-SAC-TVL LN NWD
CSTL SXNS...
   FOT NWD...SCT025 BKN CI ABV. BECMG 0205 SCT020 OVC050 TOPS
      160. ISOL -SHRA. OTLK...IFR CIGS.
   S OF FOT...SCT-BKN010 TOPS 030-040. OTLK...IFR CIGS.
REST OF AREA...SKC OCNL SCT CI. OCNL VYS 3-5SM FU HZ.
   OTLK...VFR.
SAC VLY...
   NRN AND CNTRL SXNS...SKC. OTLK...VFR.
   SRN SXNS...SKC. OCNL VIS 3-5SM FU HZ. OTLK...MVFR FU HZ.
SHASTA-SISKIYOUS-NERN CA...
NRN SIERRAS...SKC OCNL SCT CI. WINDS SLY G25KT. OTLK...VFR WIND.
.
CNTRL CA
CSTL SXNS...
   CSTLN...SKC OCNL SCT010. BECMG 0508 OCNL CIGS BKN-SCT010 TOPS
      020-030. OTLK...IFR CIGS.
   INLAND...SKC. OTLK...VFR BECMG 1114 IFR CIGS BR.
SAN JOAQUIN VLY...SKC. OTLK...VFR.
SRN SIERRAS..SKC. OTLK...VFR.
.
SRN CA..VBG-NID-60NNW BIH LN SWD
CSTL SXNS...
   CSTLN...
      EXTRM SRN SXNS...SKC. BECMG 0205 SCT010. BECMG 0508 CIGS
         BKN-OVC010 TOPS 030. OTLK...IFR CIGS.
      REST OF AREA...SKC. OTLK...VFR BECMG 0811 IFR CIGS BR.
   INLAND...SKC OCNL FEW CI. OTLK...VFR.
INTR MTNS-MOJAVE-SRN DESERTS...SKC OCNL FEW CI. OTLK...VFR.
.
CSTL WTRS
WA...SCT-BKN035-050 TOPS 100-120. ISOL -SHRA. OTLK...VFR.
OR...
NWRN HLF...SCT-BKN035-050 TOPS 100-120. ISOL -SHRA. OTLK...VFR.
SERN HLF...SCT-BKN025 BKN035-050 TOPS FL180 BKN CI ABV. WDLY SCT
   -SHRA. OTLK...MVFR CIGS SHRA.
CA...
NRN CA...
   FOT NWD...SCT025 BKN CI ABV. BECMG 0205 SCT020 OVC050 TOPS
      160. ISOL -SHRA. OTLK...IFR CIGS.
   S OF FOT...SCT-BKN010 TOPS 030-040. OTLK...IFR CIGS.
CNTRL CA...SCT-BKN010 TOPS 030-040. OTLK...IFR CIGS.
SRN CA...
   OUTER CSTL WTRS...CIGS BKN010-020 TOPS 030-050.
      OTLK...IFR CIGS.
   ADJ CSTL WTRS...SKC. OCNL AGL SCT010. OTLK...VFR BECMG 0811
      IFR CIGS BR.
.
THE AREA FORECAST WILL TERMINATE AT 2359Z ON 10 OCTOBER 2017. IN
PLACE OF THE AREA FORECAST...PLEASE SEE THE GRAPHICAL FORECAST AT
WWW.AVIATIONWEATHER.GOV/GFA. GRAPHICAL AND TEXT AIRMETS WILL
CONTINUE AS REGULARLY SCHEDULED.
....

Shortcut to this page: http://wxbay.com.

Data may contain errors.